Time;durP1;ratioP1;P1;durP2;ratioP2;P2;SDS_P1;SDS_P2;PMS_P1;PMS_P2;Temp;Humidity;BMP_temperature;BMP_pressure;BME280_temperature;BME280_humidity;BME280_pressure;Samples;Min_cycle;Max_cycle;Signal;HPM_P1;HPM_P2
2021/03/23 00:02:56;;;;;;;72.65;31.02;;;;;;;0.19;100.00;99343.89;4383268;79;44079;-76
2021/03/23 00:09:02;;;;;;;70.15;29.98;;;;;;;0.22;100.00;99357.64;4291688;81;44079;-77
2021/03/23 00:15:08;;;;;;;72.85;30.85;;;;;;;0.21;100.00;99349.38;4350541;80;44124;-77
2021/03/23 00:21:11;;;;;;;61.95;27.62;;;;;;;0.23;100.00;99346.07;4354691;80;28538;-76
2021/03/23 00:27:13;;;;;;;74.50;31.00;;;;;;;0.32;100.00;99332.90;4347133;81;44111;-76
2021/03/23 00:33:15;;;;;;;73.55;30.20;;;;;;;0.37;100.00;99330.11;4363957;80;44104;-76
2021/03/23 00:39:17;;;;;;;76.20;31.85;;;;;;;0.41;100.00;99343.86;4361710;81;44100;-77
2021/03/23 00:45:20;;;;;;;72.08;31.10;;;;;;;0.37;100.00;99334.59;4343564;80;44140;-77
2021/03/23 00:51:22;;;;;;;65.30;28.67;;;;;;;0.39;100.00;99332.11;4368778;81;43386;-80
2021/03/23 00:57:25;;;;;;;72.97;30.20;;;;;;;0.39;100.00;99333.94;4334552;81;44390;-79
2021/03/23 01:03:27;;;;;;;60.20;27.95;;;;;;;0.43;100.00;99327.33;4338032;81;43233;-78
2021/03/23 01:09:30;;;;;;;68.12;27.42;;;;;;;0.44;100.00;99325.53;4361158;81;43914;-78
2021/03/23 01:15:33;;;;;;;66.40;28.92;;;;;;;0.48;100.00;99328.19;4342416;80;44523;-78
2021/03/23 01:21:35;;;;;;;70.65;28.70;;;;;;;0.52;100.00;99324.22;4333818;81;44202;-79
2021/03/23 01:27:40;;;;;;;63.25;29.02;;;;;;;0.53;100.00;99325.39;4354783;80;43422;-80
2021/03/23 01:33:42;;;;;;;63.58;26.48;;;;;;;0.59;100.00;99327.09;4366695;81;43280;-77
2021/03/23 01:39:44;;;;;;;61.13;25.27;;;;;;;0.59;100.00;99324.44;4358228;81;42888;-77
2021/03/23 01:45:46;;;;;;;60.70;25.85;;;;;;;0.63;100.00;99331.91;4336601;80;42861;-77
2021/03/23 01:51:54;;;;;;;56.90;24.82;;;;;;;0.68;100.00;99342.02;4314660;81;44081;-77
2021/03/23 01:57:56;;;;;;;54.33;23.87;;;;;;;0.68;100.00;99332.75;4371398;80;44217;-76
2021/03/23 02:04:00;;;;;;;56.58;24.82;;;;;;;0.69;100.00;99326.47;4390085;80;44120;-76
2021/03/23 02:10:04;;;;;;;55.27;22.93;;;;;;;0.74;100.00;99325.98;4393439;80;28565;-77
2021/03/23 02:16:06;;;;;;;47.48;21.30;;;;;;;0.76;100.00;99317.39;4379236;80;44088;-76
2021/03/23 02:22:12;;;;;;;45.70;21.73;;;;;;;0.73;100.00;99315.87;4340609;81;43852;-77
2021/03/23 02:28:14;;;;;;;40.58;19.37;;;;;;;0.83;100.00;99307.31;4302413;81;43643;-76
2021/03/23 02:34:20;;;;;;;36.70;17.73;;;;;;;0.86;100.00;99311.94;4390753;80;44470;-78
2021/03/23 02:40:23;;;;;;;38.73;17.98;;;;;;;0.85;100.00;99313.78;4379563;80;44505;-77
2021/03/23 02:46:25;;;;;;;40.78;18.92;;;;;;;0.93;100.00;99309.80;4385173;81;44474;-78
2021/03/23 02:52:28;;;;;;;41.20;18.23;;;;;;;0.91;100.00;99304.36;4396144;80;44462;-78
2021/03/23 02:58:30;;;;;;;40.60;19.30;;;;;;;0.93;100.00;99300.54;4311485;81;44430;-78
2021/03/23 03:04:33;;;;;;;41.37;18.42;;;;;;;0.87;100.00;99301.20;4343278;81;43237;-77
2021/03/23 03:10:36;;;;;;;34.85;16.90;;;;;;;0.93;100.00;99299.21;4352666;80;44120;-77
2021/03/23 03:16:38;;;;;;;37.58;17.35;;;;;;;0.94;100.00;99302.70;4340884;80;44440;-76
2021/03/23 03:22:40;;;;;;;39.48;17.60;;;;;;;1.02;100.00;99302.73;4356659;81;44502;-76
2021/03/23 03:28:52;;;;;;;36.83;17.87;;;;;;;1.06;100.00;99306.70;4356830;80;44490;-76
2021/03/23 03:34:54;;;;;;;33.83;15.90;;;;;;;1.00;100.00;99316.63;4360697;81;44132;-76
2021/03/23 03:40:58;;;;;;;34.45;17.42;;;;;;;1.01;100.00;99314.80;4350019;81;44250;-76
2021/03/23 03:47:00;;;;;;;31.77;15.05;;;;;;;0.95;100.00;99303.03;4350247;80;44136;-76
2021/03/23 03:53:04;;;;;;;34.33;16.73;;;;;;;1.07;100.00;99294.30;4357743;80;44096;-76
2021/03/23 03:59:06;;;;;;;35.33;15.93;;;;;;;1.08;100.00;99299.41;4364121;80;44446;-76
2021/03/23 04:05:22;;;;;;;30.60;14.73;;;;;;;1.07;100.00;99300.92;4337752;80;28598;-77
2021/03/23 04:11:24;;;;;;;26.48;12.28;;;;;;;1.06;100.00;99302.72;4358912;80;28543;-77
2021/03/23 04:17:27;;;;;;;29.63;13.58;;;;;;;1.14;100.00;99304.55;4336175;80;43406;-78
2021/03/23 04:23:34;;;;;;;31.00;15.10;;;;;;;1.17;100.00;99313.52;4355201;80;28545;-78
2021/03/23 04:29:36;;;;;;;31.15;15.25;;;;;;;1.13;100.00;99317.47;4359487;80;44076;-77
2021/03/23 04:35:49;;;;;;;27.55;13.60;;;;;;;1.17;100.00;99310.87;4363973;80;43387;-77
2021/03/23 04:41:52;;;;;;;32.38;14.63;;;;;;;1.22;100.00;99315.67;4367967;80;44096;-77
2021/03/23 04:47:54;;;;;;;26.25;13.18;;;;;;;1.27;100.00;99322.63;4365890;80;43410;-77
2021/03/23 04:54:05;;;;;;;26.77;13.18;;;;;;;1.31;100.00;99327.10;4322523;81;43064;-77
2021/03/23 05:00:12;;;;;;;27.95;13.88;;;;;;;1.33;100.00;99326.44;4346687;80;43414;-77
2021/03/23 05:06:14;;;;;;;29.52;13.60;;;;;;;1.36;100.00;99324.30;4359888;81;43438;-77
2021/03/23 05:12:16;;;;;;;30.95;14.65;;;;;;;1.40;100.00;99323.47;4331159;81;28603;-78
2021/03/23 05:18:20;;;;;;;25.80;12.47;;;;;;;1.43;100.00;99318.34;4354578;81;28586;-76
2021/03/23 05:24:22;;;;;;;28.92;13.58;;;;;;;1.55;100.00;99314.86;4373174;81;43406;-76
2021/03/23 05:30:25;;;;;;;27.15;11.90;;;;;;;1.53;100.00;99321.66;4374058;81;43403;-77
2021/03/23 05:36:27;;;;;;;32.53;14.80;;;;;;;1.61;100.00;99326.94;4360978;81;28565;-77
2021/03/23 05:42:40;;;;;;;30.72;14.05;;;;;;;1.74;100.00;99325.64;4376599;80;44115;-77
2021/03/23 05:49:16;;;;;;;29.20;14.15;;;;;;;1.78;100.00;99329.60;4309903;81;28587;-77
2021/03/23 05:55:41;;;;;;;32.40;14.28;;;;;;;1.91;100.00;99334.41;4297598;82;44112;-77
2021/03/23 06:01:52;;;;;;;26.10;13.63;;;;;;;2.05;100.00;99338.20;4393968;80;28573;-76
2021/03/23 06:08:01;;;;;;;32.58;14.50;;;;;;;2.01;100.00;99339.03;4395863;79;28626;-77
2021/03/23 06:14:08;;;;;;;30.77;14.63;;;;;;;2.18;100.00;99341.64;4394490;81;28691;-78
2021/03/23 06:20:39;;;;;;;31.52;15.80;;;;;;;2.37;100.00;99347.09;4386244;80;44151;-77
2021/03/23 06:26:59;;;;;;;32.83;14.35;;;;;;;2.53;100.00;99352.01;4407288;80;28565;-78
2021/03/23 06:33:02;;;;;;;28.87;13.28;;;;;;;2.71;100.00;99340.66;4430428;80;28568;-77
2021/03/23 06:39:05;;;;;;;37.63;14.85;;;;;;;2.83;100.00;99347.77;4397850;80;28565;-75
2021/03/23 06:45:20;;;;;;;31.50;14.63;;;;;;;2.95;100.00;99345.53;4390233;80;28650;-76
2021/03/23 06:51:23;;;;;;;31.73;14.23;;;;;;;3.11;100.00;99352.58;4404104;80;28637;-76
2021/03/23 06:57:26;;;;;;;28.85;14.20;;;;;;;3.21;100.00;99354.52;4409110;80;28553;-76
2021/03/23 07:03:28;;;;;;;30.30;12.55;;;;;;;3.50;100.00;99354.86;4391584;79;28562;-76
2021/03/23 07:09:31;;;;;;;25.30;11.90;;;;;;;3.50;100.00;99345.55;4359143;80;28542;-76
2021/03/23 07:15:39;;;;;;;28.52;12.73;;;;;;;3.73;100.00;99350.84;4348764;81;28549;-75
2021/03/23 07:21:50;;;;;;;27.55;11.83;;;;;;;3.78;96.31;99349.49;4385880;80;28550;-76
2021/03/23 07:28:33;;;;;;;27.00;12.18;;;;;;;4.11;91.11;99333.23;4351940;81;28575;-75
2021/03/23 07:34:58;;;;;;;27.42;11.95;;;;;;;4.28;89.75;99336.54;4347048;80;28575;-75
2021/03/23 07:41:04;;;;;;;27.05;10.55;;;;;;;4.35;86.29;99348.13;4369450;81;28617;-75
2021/03/23 07:47:23;;;;;;;31.85;13.10;;;;;;;4.11;85.33;99351.85;4318075;81;28604;-75
2021/03/23 07:53:38;;;;;;;26.50;12.13;;;;;;;4.20;85.18;99353.43;4332118;81;28547;-75
2021/03/23 08:00:18;;;;;;;27.73;12.03;;;;;;;4.16;85.60;99353.45;4399372;79;28649;-76
2021/03/23 08:06:42;;;;;;;24.98;12.05;;;;;;;4.30;84.20;99349.16;4401078;79;28568;-76
2021/03/23 08:13:07;;;;;;;31.85;13.45;;;;;;;4.14;87.49;99353.66;4379693;81;28552;-76
2021/03/23 08:19:41;;;;;;;25.67;12.47;;;;;;;4.24;88.08;99345.39;4388546;80;28635;-76
2021/03/23 08:25:53;;;;;;;29.48;12.05;;;;;;;4.25;89.60;99349.70;4398584;79;28562;-77
2021/03/23 08:32:41;;;;;;;28.40;12.88;;;;;;;4.18;90.80;99355.45;4374358;80;28579;-76
2021/03/23 08:39:36;;;;;;;29.10;12.98;;;;;;;4.50;91.52;99346.80;4365969;79;28582;-78
2021/03/23 08:45:47;;;;;;;29.80;13.43;;;;;;;4.54;89.30;99341.41;4395888;80;28623;-80
2021/03/23 08:51:51;;;;;;;32.35;13.30;;;;;;;4.63;86.77;99342.13;4386183;81;28573;-77
2021/03/23 08:58:18;;;;;;;30.02;13.38;;;;;;;4.85;86.22;99348.89;4369906;81;28604;-77
2021/03/23 09:04:27;;;;;;;34.95;14.60;;;;;;;4.94;84.04;99349.59;4373072;80;28541;-80
2021/03/23 09:11:00;;;;;;;32.88;14.23;;;;;;;4.89;83.28;99360.81;4394653;81;28632;-77
2021/03/23 09:17:18;;;;;;;32.23;13.75;;;;;;;5.03;81.71;99355.95;4382116;80;28606;-77
2021/03/23 09:23:29;;;;;;;32.73;14.25;;;;;;;5.19;82.71;99363.92;4387507;81;28585;-79
2021/03/23 09:29:49;;;;;;;31.15;13.32;;;;;;;5.69;78.24;99352.84;4463485;79;72529;-77
2021/03/23 09:36:10;;;;;;;25.62;12.60;;;;;;;5.94;76.19;99347.62;4424207;80;28544;-78
2021/03/23 09:42:23;;;;;;;27.67;12.80;;;;;;;6.09;75.62;99339.55;4357742;80;28563;-84
2021/03/23 09:48:53;;;;;;;30.23;13.88;;;;;;;6.26;75.05;99334.73;4390103;80;28665;-80
2021/03/23 09:55:01;;;;;;;30.45;13.13;;;;;;;6.25;75.76;99331.75;4405568;80;28654;-80
2021/03/23 10:01:22;;;;;;;32.60;13.70;;;;;;;6.52;73.40;99325.24;4404543;80;28636;-77
2021/03/23 10:13:59;;;;;;;28.73;12.37;;;;;;;6.55;77.23;99319.50;4580197;76;77166;-78
2021/03/23 10:20:01;;;;;;;26.42;12.15;;;;;;;6.18;79.78;99313.02;4460306;78;28588;-78
2021/03/23 10:26:06;;;;;;;24.80;11.25;;;;;;;6.25;80.05;99320.57;4500399;78;28559;-79
2021/03/23 10:32:21;;;;;;;24.63;10.68;;;;;;;6.04;85.21;99321.44;4496327;78;28530;-83
2021/03/23 10:38:33;;;;;;;28.80;11.10;;;;;;;6.36;84.61;99315.70;4431105;78;28961;-81
2021/03/23 10:44:35;;;;;;;23.07;9.88;;;;;;;6.22;85.69;99321.47;4442137;78;28585;-80
2021/03/23 10:50:38;;;;;;;26.30;10.15;;;;;;;6.35;85.85;99310.02;4444935;79;28531;-80
2021/03/23 10:56:44;;;;;;;21.90;8.65;;;;;;;6.40;87.50;99321.80;4451173;78;28563;-78
2021/03/23 11:02:46;;;;;;;;;;;;;;;6.60;85.81;99313.56;4439350;78;28611;-79
2021/03/23 11:08:49;;;;;;;21.75;9.15;;;;;;;6.70;88.04;99317.50;4438296;79;20214;-79
2021/03/23 11:14:52;;;;;;;20.57;9.30;;;;;;;6.80;88.21;99309.13;4443770;78;28629;-77
2021/03/23 11:20:57;;;;;;;17.90;7.47;;;;;;;6.92;86.78;99316.04;4462172;78;28579;-82
2021/03/23 11:27:00;;;;;;;16.75;6.65;;;;;;;6.88;84.68;99320.15;4456625;78;28618;-79
2021/03/23 11:33:03;;;;;;;16.45;6.65;;;;;;;7.15;82.00;99300.19;4453189;79;28610;-79
2021/03/23 11:39:13;;;;;;;17.20;6.85;;;;;;;7.32;80.35;99303.31;4455902;79;28545;-78
2021/03/23 11:45:30;;;;;;;14.10;6.53;;;;;;;7.46;80.18;99294.80;4345040;82;28565;-78
2021/03/23 11:51:39;;;;;;;14.20;6.40;;;;;;;7.53;79.71;99302.82;4340718;80;28538;-79
2021/03/23 11:57:42;;;;;;;14.75;6.97;;;;;;;7.61;80.33;99299.11;4334706;80;28542;-78
2021/03/23 12:03:45;;;;;;;14.43;6.47;;;;;;;7.91;77.62;99292.84;4472692;78;28552;-79
2021/03/23 12:09:59;;;;;;;11.88;5.65;;;;;;;8.11;74.56;99287.95;4477442;78;28595;-78
2021/03/23 12:16:24;;;;;;;9.83;4.37;;;;;;;7.88;70.19;99298.59;4463395;78;34801;-78
2021/03/23 12:22:27;;;;;;;9.38;4.40;;;;;;;7.88;70.19;99298.59;4455085;78;28900;-80
2021/03/23 12:28:30;;;;;;;11.65;4.67;;;;;;;7.78;65.80;99306.22;4453035;79;28602;-79
2021/03/23 12:34:32;;;;;;;7.47;3.77;;;;;;;8.23;66.04;99295.68;4436076;79;28557;-79
2021/03/23 12:40:35;;;;;;;8.43;3.58;;;;;;;7.96;61.69;99289.52;4450297;79;28571;-83
2021/03/23 12:46:38;;;;;;;10.05;3.90;;;;;;;8.14;62.27;99300.95;4445184;79;28572;-78
2021/03/23 12:52:42;;;;;;;14.53;5.25;;;;;;;8.24;63.10;99301.84;4427415;79;28939;-78
2021/03/23 12:58:45;;;;;;;10.08;4.28;;;;;;;8.26;65.73;99302.45;4459969;78;28619;-78
2021/03/23 13:04:48;;;;;;;10.15;4.37;;;;;;;8.16;63.11;99308.75;4439452;79;28569;-79
2021/03/23 13:10:54;;;;;;;27.67;13.85;;;;;;;8.04;65.62;99306.71;4458175;78;28626;-79
2021/03/23 13:16:59;;;;;;;24.92;13.95;;;;;;;7.77;91.78;99300.05;4465174;79;28653;-78
2021/03/23 13:23:04;;;;;;;27.67;15.78;;;;;;;7.45;100.00;99297.16;4441364;78;28586;-76
2021/03/23 13:29:11;;;;;;;30.43;15.48;;;;;;;7.20;100.00;99295.05;4435225;78;28615;-77
2021/03/23 13:35:13;;;;;;;20.70;8.40;;;;;;;7.27;100.00;99288.37;4457640;78;28589;-79
2021/03/23 13:41:16;;;;;;;9.43;4.60;;;;;;;7.31;83.97;99289.63;4416577;79;28583;-78
2021/03/23 13:47:22;;;;;;;12.58;5.30;;;;;;;7.31;73.64;99292.80;4328781;81;28665;-80
2021/03/23 13:53:29;;;;;;;18.33;9.53;;;;;;;7.51;75.41;99296.86;4342339;80;28577;-81
2021/03/23 13:59:31;;;;;;;20.00;9.77;;;;;;;7.32;85.63;99297.95;4304262;81;28564;-81
2021/03/23 14:05:36;;;;;;;21.52;10.72;;;;;;;7.22;89.15;99291.65;4284603;82;28586;-78
2021/03/23 14:11:39;;;;;;;25.95;11.30;;;;;;;7.14;90.74;99282.50;4311423;81;28548;-79
2021/03/23 14:17:43;;;;;;;23.98;11.45;;;;;;;7.12;91.57;99272.50;4282181;81;28571;-79
2021/03/23 14:23:47;;;;;;;19.67;9.80;;;;;;;7.00;93.26;99272.28;4296758;81;28686;-80
2021/03/23 14:29:49;;;;;;;23.73;10.82;;;;;;;6.90;93.02;99273.99;4294939;82;28604;-80
2021/03/23 14:35:52;;;;;;;22.17;11.03;;;;;;;6.88;98.11;99273.38;4298315;81;28544;-81
2021/03/23 14:41:55;;;;;;;20.37;9.73;;;;;;;6.77;100.00;99280.64;4282046;81;28587;-80
2021/03/23 14:48:01;;;;;;;18.20;8.20;;;;;;;6.67;100.00;99285.03;4293046;81;28639;-79
2021/03/23 14:54:08;;;;;;;15.48;7.28;;;;;;;6.78;97.72;99291.64;4291394;82;28551;-81
2021/03/23 15:00:26;;;;;;;;;;;;;;;6.77;95.12;99297.52;4308458;82;28549;-80
2021/03/23 15:06:29;;;;;;;26.70;13.32;;;;;;;6.77;100.00;99289.99;4315170;81;20184;-80
2021/03/23 15:12:32;;;;;;;28.55;15.18;;;;;;;6.72;100.00;99285.74;4299857;82;28612;-81
2021/03/23 15:18:35;;;;;;;29.10;15.28;;;;;;;6.74;100.00;99289.88;4275418;82;28573;-79
2021/03/23 15:24:37;;;;;;;28.70;15.15;;;;;;;6.85;100.00;99284.48;4295828;81;28544;-78
2021/03/23 15:30:39;;;;;;;27.15;14.38;;;;;;;6.82;100.00;99292.87;4296381;82;28607;-77
2021/03/23 15:36:46;;;;;;;30.65;14.00;;;;;;;6.98;100.00;99287.19;4299991;82;28625;-80
2021/03/23 15:42:48;;;;;;;24.37;11.73;;;;;;;6.95;100.00;99286.75;4247600;82;28635;-78
2021/03/23 15:48:52;;;;;;;19.65;10.25;;;;;;;6.89;100.00;99295.06;4296245;81;28612;-81
2021/03/23 15:54:56;;;;;;;19.20;8.98;;;;;;;6.80;100.00;99302.95;4275214;82;28555;-81
2021/03/23 16:00:59;;;;;;;20.27;9.65;;;;;;;6.81;99.87;99306.77;4296356;82;28581;-83
2021/03/23 16:07:04;;;;;;;20.08;9.28;;;;;;;6.88;99.41;99312.66;4301390;81;28544;-81
2021/03/23 16:13:07;;;;;;;;;;;;;;;6.80;99.80;99306.95;4277443;82;28608;-83
2021/03/23 16:19:11;;;;;;;18.35;8.80;;;;;;;6.78;99.72;99311.68;4273783;83;20225;-81
2021/03/23 16:25:25;;;;;;;25.92;11.05;;;;;;;6.85;100.00;99316.55;4285964;82;28627;-81
2021/03/23 16:31:35;;;;;;;19.92;9.35;;;;;;;6.80;100.00;99317.64;4273614;82;28586;-80
2021/03/23 16:37:38;;;;;;;22.77;10.80;;;;;;;6.78;100.00;99316.53;4275983;81;28548;-80
2021/03/23 16:43:40;;;;;;;29.00;10.85;;;;;;;6.75;100.00;99330.80;4319187;81;28583;-78
2021/03/23 16:49:44;;;;;;;20.95;10.90;;;;;;;6.69;100.00;99330.55;4275219;81;28570;-82
2021/03/23 16:55:47;;;;;;;20.55;11.10;;;;;;;6.66;100.00;99332.30;4287594;81;28569;-80
2021/03/23 17:01:49;;;;;;;20.02;10.88;;;;;;;6.60;100.00;99337.08;4308359;81;28555;-79
2021/03/23 17:07:51;;;;;;;21.48;11.83;;;;;;;6.50;100.00;99342.80;4286788;82;28584;-83
2021/03/23 17:13:54;;;;;;;21.55;11.15;;;;;;;6.51;100.00;99351.12;4285050;81;28563;-83
2021/03/23 17:19:58;;;;;;;21.25;11.28;;;;;;;6.39;100.00;99363.38;4285233;81;28619;-82
2021/03/23 17:26:01;;;;;;;25.45;11.95;;;;;;;6.45;98.54;99361.77;4297218;81;28591;-83
2021/03/23 17:32:04;;;;;;;26.57;13.85;;;;;;;6.46;100.00;99366.92;4342844;80;28580;-82
2021/03/23 17:38:07;;;;;;;26.17;13.88;;;;;;;6.40;100.00;99381.05;4274407;81;28553;-80
2021/03/23 17:44:11;;;;;;;23.90;11.78;;;;;;;6.30;100.00;99393.92;4282996;83;28549;-80
2021/03/23 17:50:14;;;;;;;27.45;12.95;;;;;;;6.32;100.00;99397.22;4280258;81;28548;-81
2021/03/23 17:56:16;;;;;;;23.38;11.63;;;;;;;6.23;100.00;99399.22;4288627;83;28613;-80
2021/03/23 18:02:18;;;;;;;25.68;11.03;;;;;;;6.16;100.00;99405.84;4274290;82;28578;-78
2021/03/23 18:08:22;;;;;;;23.98;11.30;;;;;;;6.14;100.00;99417.20;4299055;82;28634;-79
2021/03/23 18:14:24;;;;;;;23.10;11.78;;;;;;;6.13;100.00;99411.05;4264510;81;28556;-79
2021/03/23 18:20:28;;;;;;;24.87;12.18;;;;;;;6.26;100.00;99417.02;4271643;83;28556;-81
2021/03/23 18:26:31;;;;;;;23.10;12.13;;;;;;;6.14;100.00;99421.20;4261905;82;28598;-79
2021/03/23 18:32:34;;;;;;;25.37;12.37;;;;;;;6.10;100.00;99421.28;4267283;82;29045;-81
2021/03/23 18:38:36;;;;;;;22.60;10.78;;;;;;;5.99;100.00;99414.61;4267309;82;28688;-78
2021/03/23 18:44:38;;;;;;;22.50;10.60;;;;;;;5.94;100.00;99421.84;4266388;82;28576;-78
2021/03/23 18:50:44;;;;;;;21.40;10.60;;;;;;;5.91;100.00;99422.21;4265965;83;28666;-82
2021/03/23 18:56:47;;;;;;;19.17;10.40;;;;;;;5.92;100.00;99427.05;4270963;82;28585;-80
2021/03/23 19:02:49;;;;;;;19.62;10.05;;;;;;;5.94;100.00;99431.69;4273050;82;28556;-81
2021/03/23 19:08:52;;;;;;;24.85;12.58;;;;;;;5.95;100.00;99427.50;4405660;79;28603;-80
2021/03/23 19:14:54;;;;;;;23.57;10.55;;;;;;;5.93;100.00;99437.52;4436740;78;28567;-80
2021/03/23 19:20:56;;;;;;;22.58;10.72;;;;;;;5.88;100.00;99438.61;4429940;79;28586;-81
2021/03/23 19:26:59;;;;;;;21.95;10.72;;;;;;;5.85;100.00;99439.81;4461808;78;28555;-80
2021/03/23 19:33:03;;;;;;;23.57;11.70;;;;;;;5.89;100.00;99440.27;4450091;78;28548;-80
2021/03/23 19:39:06;;;;;;;23.73;11.05;;;;;;;5.85;100.00;99449.67;4450856;78;28620;-79
2021/03/23 19:45:10;;;;;;;21.95;10.68;;;;;;;5.80;100.00;99446.24;4454099;79;28593;-80
2021/03/23 19:51:17;;;;;;;26.00;12.03;;;;;;;5.71;100.00;99446.05;4441540;79;28538;-77
2021/03/23 19:57:19;;;;;;;22.98;12.00;;;;;;;5.64;100.00;99447.80;4437043;79;28528;-79
2021/03/23 20:03:21;;;;;;;26.70;13.15;;;;;;;5.51;100.00;99447.14;4449468;79;28550;-78
2021/03/23 20:09:26;;;;;;;24.77;11.68;;;;;;;5.49;100.00;99459.34;4455233;79;28575;-79
2021/03/23 20:15:33;;;;;;;26.42;12.75;;;;;;;5.46;100.00;99460.23;4445883;79;28559;-79
2021/03/23 20:21:35;;;;;;;25.85;12.80;;;;;;;5.40;100.00;99457.80;4441870;78;28616;-79
2021/03/23 20:27:38;;;;;;;28.02;13.60;;;;;;;5.47;100.00;99468.05;4450827;79;28664;-78
2021/03/23 20:33:41;;;;;;;28.23;13.08;;;;;;;5.42;100.00;99466.44;4448479;79;28646;-81
2021/03/23 20:39:43;;;;;;;27.35;13.22;;;;;;;5.49;100.00;99467.84;4430305;78;28555;-81
2021/03/23 20:45:49;;;;;;;26.10;12.40;;;;;;;5.38;100.00;99465.17;4428461;79;28652;-81
2021/03/23 20:51:52;;;;;;;27.90;12.82;;;;;;;5.39;100.00;99474.30;4441928;79;28599;-82
2021/03/23 20:57:55;;;;;;;30.23;15.03;;;;;;;5.37;100.00;99473.66;4449523;78;28622;-80
2021/03/23 21:03:57;;;;;;;26.97;12.95;;;;;;;5.33;100.00;99490.21;4437386;79;28551;-82
2021/03/23 21:10:00;;;;;;;33.20;15.48;;;;;;;5.25;100.00;99501.28;4456286;79;28551;-82
2021/03/23 21:16:05;;;;;;;28.57;12.82;;;;;;;5.23;100.00;99510.51;4454881;79;28618;-82
2021/03/23 21:22:07;;;;;;;26.68;13.93;;;;;;;5.30;100.00;99518.06;4449327;78;28930;-82
2021/03/23 21:28:13;;;;;;;28.62;13.78;;;;;;;5.25;100.00;99517.28;4448969;79;28553;-84
2021/03/23 21:34:18;;;;;;;27.22;13.78;;;;;;;5.28;100.00;99518.27;4449003;78;28575;-83
2021/03/23 21:40:22;;;;;;;26.73;13.30;;;;;;;5.26;100.00;99520.30;4450505;78;28550;-83
2021/03/23 21:46:26;;;;;;;28.20;13.20;;;;;;;5.26;100.00;99516.30;4448426;79;28578;-80
2021/03/23 21:52:30;;;;;;;26.60;13.37;;;;;;;5.31;100.00;99521.08;4439195;79;28570;-82
2021/03/23 21:58:33;;;;;;;28.62;13.83;;;;;;;5.35;100.00;99518.36;4444161;79;28589;-82
2021/03/23 22:04:35;;;;;;;24.57;12.10;;;;;;;5.26;100.00;99524.80;4447934;80;28547;-81
2021/03/23 22:10:38;;;;;;;27.05;13.62;;;;;;;5.37;100.00;99528.33;4451924;78;28614;-81
2021/03/23 22:16:40;;;;;;;26.97;12.90;;;;;;;5.26;100.00;99527.45;4479601;78;28633;-81
2021/03/23 22:22:43;;;;;;;28.95;13.00;;;;;;;5.36;100.00;99525.83;4478580;78;28610;-81
2021/03/23 22:28:45;;;;;;;23.90;11.55;;;;;;;5.28;100.00;99533.42;4470794;79;28644;-81
2021/03/23 22:34:47;;;;;;;17.87;9.45;;;;;;;5.25;100.00;99539.95;4480138;78;28594;-80
2021/03/23 22:40:53;;;;;;;25.62;12.47;;;;;;;5.22;100.00;99540.33;4478063;79;28570;-81
2021/03/23 22:46:56;;;;;;;20.35;9.08;;;;;;;5.34;100.00;99543.37;4457347;78;28539;-80
2021/03/23 22:52:59;;;;;;;21.65;9.88;;;;;;;5.18;100.00;99548.38;4475565;78;28905;-79
2021/03/23 22:59:01;;;;;;;20.20;10.55;;;;;;;5.20;100.00;99538.35;4488435;79;28562;-81
2021/03/23 23:05:04;;;;;;;18.07;9.23;;;;;;;5.11;100.00;99529.63;4490360;79;28575;-81
2021/03/23 23:11:14;;;;;;;20.82;10.23;;;;;;;5.14;100.00;99528.41;4475710;78;28574;-80
2021/03/23 23:17:16;;;;;;;20.45;10.30;;;;;;;4.99;100.00;99537.73;4438679;79;28568;-80
2021/03/23 23:23:21;;;;;;;14.78;9.00;;;;;;;4.76;100.00;99547.94;4457732;79;28543;-79
2021/03/23 23:29:26;;;;;;;19.67;10.88;;;;;;;4.75;100.00;99547.62;4457480;79;28599;-79
2021/03/23 23:35:28;;;;;;;19.20;10.48;;;;;;;4.57;100.00;99545.28;4457705;79;28543;-81
2021/03/23 23:41:30;;;;;;;20.82;10.50;;;;;;;4.59;100.00;99553.42;4415595;79;28566;-80
2021/03/23 23:47:32;;;;;;;18.02;9.23;;;;;;;4.74;100.00;99549.47;4398885;79;28633;-80
2021/03/23 23:53:34;;;;;;;22.00;11.35;;;;;;;4.72;100.00;99557.31;4438877;79;28551;-80
2021/03/23 23:59:37;;;;;;;16.02;8.33;;;;;;;4.68;100.00;99565.32;4456667;79;28664;-80
